sensor_id;sensor_type;location;lat;lon;timestamp;P1;durP1;ratioP1;P2;durP2;ratioP2
27857;SDS011;16852;51.446;6.528;2023-05-10T00:01:36;9.63;;;7.90;;
27857;SDS011;16852;51.446;6.528;2023-05-10T00:03:37;12.25;;;8.77;;
27857;SDS011;16852;51.446;6.528;2023-05-10T00:05:37;10.88;;;8.43;;
27857;SDS011;16852;51.446;6.528;2023-05-10T00:07:38;11.80;;;9.27;;
27857;SDS011;16852;51.446;6.528;2023-05-10T00:09:38;10.13;;;8.10;;
27857;SDS011;16852;51.446;6.528;2023-05-10T00:11:40;9.15;;;7.47;;
27857;SDS011;16852;51.446;6.528;2023-05-10T00:13:40;10.00;;;8.30;;
27857;SDS011;16852;51.446;6.528;2023-05-10T00:15:41;11.85;;;9.15;;
27857;SDS011;16852;51.446;6.528;2023-05-10T00:17:41;12.90;;;9.10;;
27857;SDS011;16852;51.446;6.528;2023-05-10T00:19:42;9.38;;;7.93;;
27857;SDS011;16852;51.446;6.528;2023-05-10T00:21:42;11.48;;;8.88;;
27857;SDS011;16852;51.446;6.528;2023-05-10T00:23:43;10.73;;;8.57;;
27857;SDS011;16852;51.446;6.528;2023-05-10T00:25:43;10.30;;;7.93;;
27857;SDS011;16852;51.446;6.528;2023-05-10T00:27:44;12.55;;;9.77;;
27857;SDS011;16852;51.446;6.528;2023-05-10T00:29:45;10.43;;;8.63;;
27857;SDS011;16852;51.446;6.528;2023-05-10T00:31:45;12.35;;;9.85;;
27857;SDS011;16852;51.446;6.528;2023-05-10T00:33:46;12.30;;;10.32;;
27857;SDS011;16852;51.446;6.528;2023-05-10T00:35:46;10.45;;;9.02;;
27857;SDS011;16852;51.446;6.528;2023-05-10T00:37:47;11.93;;;9.80;;
27857;SDS011;16852;51.446;6.528;2023-05-10T00:39:47;14.00;;;11.10;;
27857;SDS011;16852;51.446;6.528;2023-05-10T00:41:48;11.13;;;8.95;;
27857;SDS011;16852;51.446;6.528;2023-05-10T00:43:48;11.77;;;9.25;;
27857;SDS011;16852;51.446;6.528;2023-05-10T00:45:49;13.90;;;10.95;;
27857;SDS011;16852;51.446;6.528;2023-05-10T00:47:50;12.52;;;9.43;;
27857;SDS011;16852;51.446;6.528;2023-05-10T00:49:54;10.82;;;8.90;;
27857;SDS011;16852;51.446;6.528;2023-05-10T00:51:55;11.75;;;9.32;;
27857;SDS011;16852;51.446;6.528;2023-05-10T00:53:56;13.63;;;9.48;;
27857;SDS011;16852;51.446;6.528;2023-05-10T00:55:57;11.00;;;8.80;;
27857;SDS011;16852;51.446;6.528;2023-05-10T00:57:57;11.27;;;9.45;;
27857;SDS011;16852;51.446;6.528;2023-05-10T00:59:59;10.57;;;8.07;;
27857;SDS011;16852;51.446;6.528;2023-05-10T01:01:59;11.35;;;8.65;;
27857;SDS011;16852;51.446;6.528;2023-05-10T01:04:00;9.38;;;8.00;;
27857;SDS011;16852;51.446;6.528;2023-05-10T01:06:01;8.32;;;6.95;;
27857;SDS011;16852;51.446;6.528;2023-05-10T01:08:18;9.07;;;7.47;;
27857;SDS011;16852;51.446;6.528;2023-05-10T01:10:19;9.13;;;7.43;;
27857;SDS011;16852;51.446;6.528;2023-05-10T01:12:20;8.23;;;7.18;;
27857;SDS011;16852;51.446;6.528;2023-05-10T01:14:20;9.35;;;8.18;;
27857;SDS011;16852;51.446;6.528;2023-05-10T01:16:22;11.60;;;8.98;;
27857;SDS011;16852;51.446;6.528;2023-05-10T01:18:23;10.68;;;8.80;;
27857;SDS011;16852;51.446;6.528;2023-05-10T01:20:25;8.73;;;7.40;;
27857;SDS011;16852;51.446;6.528;2023-05-10T01:34:12;9.35;;;7.57;;
27857;SDS011;16852;51.446;6.528;2023-05-10T01:36:27;9.63;;;7.63;;
27857;SDS011;16852;51.446;6.528;2023-05-10T01:38:34;9.85;;;7.78;;
27857;SDS011;16852;51.446;6.528;2023-05-10T01:41:14;8.15;;;6.80;;
27857;SDS011;16852;51.446;6.528;2023-05-10T01:43:19;9.45;;;7.60;;
27857;SDS011;16852;51.446;6.528;2023-05-10T01:45:34;8.68;;;7.45;;
27857;SDS011;16852;51.446;6.528;2023-05-10T01:47:40;11.73;;;8.27;;
27857;SDS011;16852;51.446;6.528;2023-05-10T01:49:50;10.88;;;8.45;;
27857;SDS011;16852;51.446;6.528;2023-05-10T01:51:53;9.05;;;7.32;;
27857;SDS011;16852;51.446;6.528;2023-05-10T01:53:59;9.95;;;7.20;;
27857;SDS011;16852;51.446;6.528;2023-05-10T01:56:02;8.98;;;7.25;;
27857;SDS011;16852;51.446;6.528;2023-05-10T01:58:10;12.38;;;9.00;;
27857;SDS011;16852;51.446;6.528;2023-05-10T02:00:13;9.77;;;7.38;;
27857;SDS011;16852;51.446;6.528;2023-05-10T02:02:15;9.40;;;7.30;;
27857;SDS011;16852;51.446;6.528;2023-05-10T02:04:18;9.38;;;7.47;;
27857;SDS011;16852;51.446;6.528;2023-05-10T02:06:21;8.73;;;6.72;;
27857;SDS011;16852;51.446;6.528;2023-05-10T02:08:23;8.40;;;6.97;;
27857;SDS011;16852;51.446;6.528;2023-05-10T02:10:25;10.52;;;7.50;;
27857;SDS011;16852;51.446;6.528;2023-05-10T02:12:27;13.07;;;8.30;;
27857;SDS011;16852;51.446;6.528;2023-05-10T02:16:35;10.70;;;6.82;;
27857;SDS011;16852;51.446;6.528;2023-05-10T02:18:36;10.48;;;8.35;;
27857;SDS011;16852;51.446;6.528;2023-05-10T02:20:36;9.85;;;7.88;;
27857;SDS011;16852;51.446;6.528;2023-05-10T02:22:38;9.43;;;7.35;;
27857;SDS011;16852;51.446;6.528;2023-05-10T02:24:40;9.48;;;7.43;;
27857;SDS011;16852;51.446;6.528;2023-05-10T02:26:41;8.95;;;7.30;;
27857;SDS011;16852;51.446;6.528;2023-05-10T02:28:44;10.43;;;8.15;;
27857;SDS011;16852;51.446;6.528;2023-05-10T02:30:45;11.63;;;8.50;;
27857;SDS011;16852;51.446;6.528;2023-05-10T02:32:47;9.60;;;7.72;;
27857;SDS011;16852;51.446;6.528;2023-05-10T02:34:49;10.15;;;7.53;;
27857;SDS011;16852;51.446;6.528;2023-05-10T02:36:52;9.75;;;7.70;;
27857;SDS011;16852;51.446;6.528;2023-05-10T02:38:54;8.40;;;6.73;;
27857;SDS011;16852;51.446;6.528;2023-05-10T02:40:55;9.50;;;7.30;;
27857;SDS011;16852;51.446;6.528;2023-05-10T02:42:58;9.20;;;6.72;;
27857;SDS011;16852;51.446;6.528;2023-05-10T02:45:02;8.90;;;6.90;;
27857;SDS011;16852;51.446;6.528;2023-05-10T02:47:08;7.60;;;6.18;;
27857;SDS011;16852;51.446;6.528;2023-05-10T02:49:09;9.07;;;7.38;;
27857;SDS011;16852;51.446;6.528;2023-05-10T02:51:10;9.48;;;7.65;;
27857;SDS011;16852;51.446;6.528;2023-05-10T02:53:15;9.82;;;7.30;;
27857;SDS011;16852;51.446;6.528;2023-05-10T02:55:35;11.13;;;6.47;;
27857;SDS011;16852;51.446;6.528;2023-05-10T02:57:41;10.13;;;7.80;;
27857;SDS011;16852;51.446;6.528;2023-05-10T02:59:52;9.20;;;7.55;;
27857;SDS011;16852;51.446;6.528;2023-05-10T03:01:53;8.57;;;6.43;;
27857;SDS011;16852;51.446;6.528;2023-05-10T03:03:53;8.75;;;6.97;;
27857;SDS011;16852;51.446;6.528;2023-05-10T03:05:54;9.30;;;6.93;;
27857;SDS011;16852;51.446;6.528;2023-05-10T03:07:55;8.82;;;7.20;;
27857;SDS011;16852;51.446;6.528;2023-05-10T03:09:56;8.57;;;6.65;;
27857;SDS011;16852;51.446;6.528;2023-05-10T03:14:12;10.93;;;8.15;;
27857;SDS011;16852;51.446;6.528;2023-05-10T03:16:15;8.75;;;6.97;;
27857;SDS011;16852;51.446;6.528;2023-05-10T03:18:21;8.50;;;6.65;;
27857;SDS011;16852;51.446;6.528;2023-05-10T03:20:29;10.23;;;7.20;;
27857;SDS011;16852;51.446;6.528;2023-05-10T03:22:36;8.77;;;7.00;;
27857;SDS011;16852;51.446;6.528;2023-05-10T03:24:39;9.05;;;6.80;;
27857;SDS011;16852;51.446;6.528;2023-05-10T03:28:43;7.75;;;6.13;;
27857;SDS011;16852;51.446;6.528;2023-05-10T03:30:44;10.60;;;7.97;;
27857;SDS011;16852;51.446;6.528;2023-05-10T03:32:46;9.85;;;7.63;;
27857;SDS011;16852;51.446;6.528;2023-05-10T03:34:46;12.20;;;8.63;;
27857;SDS011;16852;51.446;6.528;2023-05-10T03:36:47;11.02;;;8.27;;
27857;SDS011;16852;51.446;6.528;2023-05-10T03:38:47;12.90;;;9.55;;
27857;SDS011;16852;51.446;6.528;2023-05-10T03:40:48;10.30;;;8.15;;
27857;SDS011;16852;51.446;6.528;2023-05-10T03:42:48;12.70;;;9.23;;
27857;SDS011;16852;51.446;6.528;2023-05-10T03:44:49;13.05;;;9.45;;
27857;SDS011;16852;51.446;6.528;2023-05-10T03:46:50;11.40;;;8.95;;
27857;SDS011;16852;51.446;6.528;2023-05-10T03:48:50;11.38;;;8.30;;
27857;SDS011;16852;51.446;6.528;2023-05-10T03:50:51;12.65;;;9.45;;
27857;SDS011;16852;51.446;6.528;2023-05-10T03:52:51;11.88;;;9.05;;
27857;SDS011;16852;51.446;6.528;2023-05-10T03:54:52;12.88;;;9.52;;
27857;SDS011;16852;51.446;6.528;2023-05-10T03:56:53;15.15;;;11.05;;
27857;SDS011;16852;51.446;6.528;2023-05-10T03:58:53;14.20;;;10.95;;
27857;SDS011;16852;51.446;6.528;2023-05-10T04:00:54;13.68;;;9.65;;
27857;SDS011;16852;51.446;6.528;2023-05-10T04:02:55;16.48;;;11.98;;
27857;SDS011;16852;51.446;6.528;2023-05-10T04:04:56;13.77;;;10.25;;
27857;SDS011;16852;51.446;6.528;2023-05-10T04:06:56;15.05;;;11.25;;
27857;SDS011;16852;51.446;6.528;2023-05-10T04:08:57;18.65;;;12.20;;
27857;SDS011;16852;51.446;6.528;2023-05-10T04:11:06;20.15;;;13.63;;
27857;SDS011;16852;51.446;6.528;2023-05-10T04:13:11;16.23;;;11.73;;
27857;SDS011;16852;51.446;6.528;2023-05-10T04:15:11;15.93;;;11.65;;
27857;SDS011;16852;51.446;6.528;2023-05-10T04:17:12;21.48;;;14.27;;
27857;SDS011;16852;51.446;6.528;2023-05-10T04:19:13;22.40;;;15.57;;
27857;SDS011;16852;51.446;6.528;2023-05-10T04:21:13;24.30;;;17.38;;
27857;SDS011;16852;51.446;6.528;2023-05-10T04:23:14;20.35;;;14.93;;
27857;SDS011;16852;51.446;6.528;2023-05-10T04:25:16;23.30;;;14.82;;
27857;SDS011;16852;51.446;6.528;2023-05-10T04:27:17;20.00;;;13.90;;
27857;SDS011;16852;51.446;6.528;2023-05-10T04:29:17;21.40;;;14.35;;
27857;SDS011;16852;51.446;6.528;2023-05-10T04:31:18;22.85;;;14.85;;
27857;SDS011;16852;51.446;6.528;2023-05-10T04:33:18;21.70;;;14.63;;
27857;SDS011;16852;51.446;6.528;2023-05-10T04:35:19;22.80;;;16.10;;
27857;SDS011;16852;51.446;6.528;2023-05-10T04:37:19;22.15;;;15.98;;
27857;SDS011;16852;51.446;6.528;2023-05-10T04:39:21;20.40;;;14.80;;
27857;SDS011;16852;51.446;6.528;2023-05-10T04:41:21;20.95;;;14.00;;
27857;SDS011;16852;51.446;6.528;2023-05-10T04:43:22;24.35;;;17.52;;
27857;SDS011;16852;51.446;6.528;2023-05-10T04:45:22;23.00;;;15.88;;
27857;SDS011;16852;51.446;6.528;2023-05-10T04:47:23;21.02;;;15.05;;
27857;SDS011;16852;51.446;6.528;2023-05-10T04:49:24;23.00;;;16.83;;
27857;SDS011;16852;51.446;6.528;2023-05-10T04:51:24;24.08;;;16.73;;
27857;SDS011;16852;51.446;6.528;2023-05-10T04:53:25;23.15;;;16.05;;
27857;SDS011;16852;51.446;6.528;2023-05-10T04:55:25;23.92;;;16.95;;
27857;SDS011;16852;51.446;6.528;2023-05-10T04:57:26;25.92;;;17.27;;
27857;SDS011;16852;51.446;6.528;2023-05-10T04:59:27;23.35;;;16.90;;
27857;SDS011;16852;51.446;6.528;2023-05-10T05:01:28;23.58;;;15.98;;
27857;SDS011;16852;51.446;6.528;2023-05-10T05:03:28;24.40;;;17.77;;
27857;SDS011;16852;51.446;6.528;2023-05-10T05:05:29;25.95;;;18.00;;
27857;SDS011;16852;51.446;6.528;2023-05-10T05:07:29;24.88;;;18.30;;
27857;SDS011;16852;51.446;6.528;2023-05-10T05:09:30;32.05;;;19.73;;
27857;SDS011;16852;51.446;6.528;2023-05-10T05:11:32;29.08;;;19.40;;
27857;SDS011;16852;51.446;6.528;2023-05-10T05:13:32;27.75;;;18.48;;
27857;SDS011;16852;51.446;6.528;2023-05-10T05:15:33;32.08;;;21.77;;
27857;SDS011;16852;51.446;6.528;2023-05-10T05:17:33;31.58;;;21.15;;
27857;SDS011;16852;51.446;6.528;2023-05-10T05:19:34;33.15;;;22.25;;
27857;SDS011;16852;51.446;6.528;2023-05-10T05:21:35;23.83;;;17.60;;
27857;SDS011;16852;51.446;6.528;2023-05-10T05:23:36;26.83;;;18.80;;
27857;SDS011;16852;51.446;6.528;2023-05-10T05:25:36;37.03;;;22.60;;
27857;SDS011;16852;51.446;6.528;2023-05-10T05:27:37;31.92;;;21.40;;
27857;SDS011;16852;51.446;6.528;2023-05-10T05:29:37;26.90;;;18.58;;
27857;SDS011;16852;51.446;6.528;2023-05-10T05:31:38;31.35;;;20.30;;
27857;SDS011;16852;51.446;6.528;2023-05-10T05:33:39;29.30;;;19.17;;
27857;SDS011;16852;51.446;6.528;2023-05-10T05:35:39;28.88;;;19.58;;
27857;SDS011;16852;51.446;6.528;2023-05-10T05:37:40;26.92;;;17.63;;
27857;SDS011;16852;51.446;6.528;2023-05-10T05:39:40;24.20;;;16.08;;
27857;SDS011;16852;51.446;6.528;2023-05-10T05:41:42;28.55;;;18.13;;
27857;SDS011;16852;51.446;6.528;2023-05-10T05:43:43;29.15;;;18.30;;
27857;SDS011;16852;51.446;6.528;2023-05-10T05:45:44;23.60;;;16.55;;
27857;SDS011;16852;51.446;6.528;2023-05-10T05:47:44;24.65;;;16.35;;
27857;SDS011;16852;51.446;6.528;2023-05-10T05:49:45;25.85;;;16.80;;
27857;SDS011;16852;51.446;6.528;2023-05-10T05:51:45;32.35;;;20.33;;
27857;SDS011;16852;51.446;6.528;2023-05-10T05:53:46;29.00;;;17.92;;
27857;SDS011;16852;51.446;6.528;2023-05-10T05:55:53;29.10;;;18.50;;
27857;SDS011;16852;51.446;6.528;2023-05-10T05:57:55;28.73;;;18.52;;
27857;SDS011;16852;51.446;6.528;2023-05-10T05:59:55;31.90;;;19.10;;
27857;SDS011;16852;51.446;6.528;2023-05-10T06:01:56;34.08;;;21.27;;
27857;SDS011;16852;51.446;6.528;2023-05-10T06:03:56;32.90;;;20.65;;
27857;SDS011;16852;51.446;6.528;2023-05-10T06:05:57;31.08;;;19.70;;
27857;SDS011;16852;51.446;6.528;2023-05-10T06:07:59;30.80;;;19.77;;
27857;SDS011;16852;51.446;6.528;2023-05-10T06:10:00;34.60;;;19.58;;
27857;SDS011;16852;51.446;6.528;2023-05-10T06:12:01;31.13;;;19.27;;
27857;SDS011;16852;51.446;6.528;2023-05-10T06:14:01;27.10;;;18.40;;
27857;SDS011;16852;51.446;6.528;2023-05-10T06:18:04;33.45;;;19.75;;
27857;SDS011;16852;51.446;6.528;2023-05-10T06:20:06;30.25;;;19.38;;
27857;SDS011;16852;51.446;6.528;2023-05-10T06:22:07;32.42;;;20.00;;
27857;SDS011;16852;51.446;6.528;2023-05-10T06:24:08;35.70;;;22.35;;
27857;SDS011;16852;51.446;6.528;2023-05-10T06:26:08;33.70;;;20.25;;
27857;SDS011;16852;51.446;6.528;2023-05-10T06:28:09;32.20;;;20.13;;
27857;SDS011;16852;51.446;6.528;2023-05-10T06:30:10;34.42;;;21.08;;
27857;SDS011;16852;51.446;6.528;2023-05-10T06:32:13;35.20;;;21.08;;
27857;SDS011;16852;51.446;6.528;2023-05-10T06:34:13;34.28;;;20.58;;
27857;SDS011;16852;51.446;6.528;2023-05-10T06:36:14;45.33;;;25.15;;
27857;SDS011;16852;51.446;6.528;2023-05-10T06:38:14;34.30;;;20.13;;
27857;SDS011;16852;51.446;6.528;2023-05-10T06:40:15;34.38;;;18.98;;
27857;SDS011;16852;51.446;6.528;2023-05-10T06:42:16;35.58;;;21.67;;
27857;SDS011;16852;51.446;6.528;2023-05-10T06:44:16;32.85;;;20.95;;
27857;SDS011;16852;51.446;6.528;2023-05-10T06:46:17;40.72;;;21.95;;
27857;SDS011;16852;51.446;6.528;2023-05-10T06:48:17;34.35;;;21.05;;
27857;SDS011;16852;51.446;6.528;2023-05-10T06:50:18;36.35;;;22.42;;
27857;SDS011;16852;51.446;6.528;2023-05-10T06:52:18;34.30;;;21.48;;
27857;SDS011;16852;51.446;6.528;2023-05-10T06:54:19;31.65;;;21.17;;
27857;SDS011;16852;51.446;6.528;2023-05-10T06:56:20;34.78;;;21.40;;
27857;SDS011;16852;51.446;6.528;2023-05-10T06:58:21;37.90;;;22.90;;
27857;SDS011;16852;51.446;6.528;2023-05-10T07:00:22;42.05;;;23.27;;
27857;SDS011;16852;51.446;6.528;2023-05-10T07:02:22;33.30;;;19.75;;
27857;SDS011;16852;51.446;6.528;2023-05-10T07:04:23;39.90;;;23.70;;
27857;SDS011;16852;51.446;6.528;2023-05-10T07:06:24;36.17;;;22.73;;
27857;SDS011;16852;51.446;6.528;2023-05-10T07:08:24;32.83;;;20.08;;
27857;SDS011;16852;51.446;6.528;2023-05-10T07:10:25;33.83;;;20.35;;
27857;SDS011;16852;51.446;6.528;2023-05-10T07:12:26;33.97;;;20.17;;
27857;SDS011;16852;51.446;6.528;2023-05-10T07:14:27;45.35;;;23.85;;
27857;SDS011;16852;51.446;6.528;2023-05-10T07:16:28;51.30;;;28.10;;
27857;SDS011;16852;51.446;6.528;2023-05-10T07:18:28;45.53;;;24.17;;
27857;SDS011;16852;51.446;6.528;2023-05-10T07:20:29;48.83;;;26.23;;
27857;SDS011;16852;51.446;6.528;2023-05-10T07:22:29;40.75;;;22.90;;
27857;SDS011;16852;51.446;6.528;2023-05-10T07:24:32;46.22;;;24.13;;
27857;SDS011;16852;51.446;6.528;2023-05-10T07:26:33;40.88;;;22.65;;
27857;SDS011;16852;51.446;6.528;2023-05-10T07:28:34;39.78;;;22.63;;
27857;SDS011;16852;51.446;6.528;2023-05-10T07:30:37;41.28;;;23.15;;
27857;SDS011;16852;51.446;6.528;2023-05-10T07:32:37;38.97;;;22.65;;
27857;SDS011;16852;51.446;6.528;2023-05-10T07:34:39;41.85;;;23.58;;
27857;SDS011;16852;51.446;6.528;2023-05-10T07:36:39;44.17;;;25.73;;
27857;SDS011;16852;51.446;6.528;2023-05-10T07:38:40;48.50;;;26.15;;
27857;SDS011;16852;51.446;6.528;2023-05-10T07:40:40;50.25;;;27.35;;
27857;SDS011;16852;51.446;6.528;2023-05-10T07:42:41;50.15;;;26.55;;
27857;SDS011;16852;51.446;6.528;2023-05-10T07:44:42;41.08;;;24.08;;
27857;SDS011;16852;51.446;6.528;2023-05-10T07:46:43;42.05;;;25.25;;
27857;SDS011;16852;51.446;6.528;2023-05-10T07:48:43;40.38;;;23.90;;
27857;SDS011;16852;51.446;6.528;2023-05-10T07:50:44;46.67;;;25.50;;
27857;SDS011;16852;51.446;6.528;2023-05-10T07:52:44;47.30;;;26.20;;
27857;SDS011;16852;51.446;6.528;2023-05-10T07:54:45;40.65;;;22.20;;
27857;SDS011;16852;51.446;6.528;2023-05-10T07:56:46;37.15;;;21.75;;
27857;SDS011;16852;51.446;6.528;2023-05-10T07:58:47;41.72;;;24.08;;
27857;SDS011;16852;51.446;6.528;2023-05-10T08:00:47;42.10;;;24.00;;
27857;SDS011;16852;51.446;6.528;2023-05-10T08:02:49;39.88;;;22.50;;
27857;SDS011;16852;51.446;6.528;2023-05-10T08:04:49;41.35;;;23.70;;
27857;SDS011;16852;51.446;6.528;2023-05-10T08:06:50;46.60;;;26.45;;
27857;SDS011;16852;51.446;6.528;2023-05-10T08:08:50;40.83;;;24.00;;
27857;SDS011;16852;51.446;6.528;2023-05-10T08:10:52;42.90;;;25.67;;
27857;SDS011;16852;51.446;6.528;2023-05-10T08:12:52;50.72;;;28.33;;
27857;SDS011;16852;51.446;6.528;2023-05-10T08:14:53;41.92;;;23.83;;
27857;SDS011;16852;51.446;6.528;2023-05-10T08:16:53;40.08;;;22.63;;
27857;SDS011;16852;51.446;6.528;2023-05-10T08:18:54;38.05;;;23.35;;
27857;SDS011;16852;51.446;6.528;2023-05-10T08:20:55;35.72;;;21.75;;
27857;SDS011;16852;51.446;6.528;2023-05-10T08:22:55;31.77;;;20.30;;
27857;SDS011;16852;51.446;6.528;2023-05-10T08:24:56;34.30;;;20.45;;
27857;SDS011;16852;51.446;6.528;2023-05-10T08:26:56;34.70;;;20.70;;
27857;SDS011;16852;51.446;6.528;2023-05-10T08:28:57;31.88;;;20.20;;
27857;SDS011;16852;51.446;6.528;2023-05-10T08:30:58;27.30;;;17.63;;
27857;SDS011;16852;51.446;6.528;2023-05-10T08:32:58;28.15;;;18.30;;
27857;SDS011;16852;51.446;6.528;2023-05-10T08:34:59;36.63;;;21.00;;
27857;SDS011;16852;51.446;6.528;2023-05-10T08:36:59;26.42;;;17.33;;
27857;SDS011;16852;51.446;6.528;2023-05-10T08:39:00;26.30;;;16.75;;
27857;SDS011;16852;51.446;6.528;2023-05-10T08:41:01;27.85;;;15.88;;
27857;SDS011;16852;51.446;6.528;2023-05-10T08:43:04;28.35;;;16.73;;
27857;SDS011;16852;51.446;6.528;2023-05-10T08:45:09;25.90;;;15.85;;
27857;SDS011;16852;51.446;6.528;2023-05-10T08:47:11;20.85;;;13.25;;
27857;SDS011;16852;51.446;6.528;2023-05-10T08:49:16;22.33;;;14.48;;
27857;SDS011;16852;51.446;6.528;2023-05-10T08:51:19;19.02;;;11.70;;
27857;SDS011;16852;51.446;6.528;2023-05-10T08:53:24;19.88;;;12.77;;
27857;SDS011;16852;51.446;6.528;2023-05-10T08:55:27;21.42;;;13.15;;
27857;SDS011;16852;51.446;6.528;2023-05-10T08:57:27;19.52;;;11.82;;
27857;SDS011;16852;51.446;6.528;2023-05-10T08:59:28;15.45;;;10.65;;
27857;SDS011;16852;51.446;6.528;2023-05-10T09:01:29;22.20;;;13.55;;
27857;SDS011;16852;51.446;6.528;2023-05-10T09:03:32;24.65;;;14.85;;
27857;SDS011;16852;51.446;6.528;2023-05-10T09:05:33;22.73;;;14.57;;
27857;SDS011;16852;51.446;6.528;2023-05-10T09:07:33;22.48;;;13.68;;
27857;SDS011;16852;51.446;6.528;2023-05-10T09:09:34;28.85;;;16.83;;
27857;SDS011;16852;51.446;6.528;2023-05-10T09:11:35;23.55;;;13.63;;
27857;SDS011;16852;51.446;6.528;2023-05-10T09:13:36;24.95;;;14.88;;
27857;SDS011;16852;51.446;6.528;2023-05-10T09:15:37;21.40;;;14.07;;
27857;SDS011;16852;51.446;6.528;2023-05-10T09:17:38;28.40;;;15.73;;
27857;SDS011;16852;51.446;6.528;2023-05-10T09:19:40;24.98;;;14.63;;
27857;SDS011;16852;51.446;6.528;2023-05-10T09:21:41;26.00;;;15.65;;
27857;SDS011;16852;51.446;6.528;2023-05-10T09:23:44;21.90;;;13.88;;
27857;SDS011;16852;51.446;6.528;2023-05-10T09:25:46;21.27;;;14.27;;
27857;SDS011;16852;51.446;6.528;2023-05-10T09:27:47;22.50;;;14.43;;
27857;SDS011;16852;51.446;6.528;2023-05-10T09:29:48;21.05;;;13.68;;
27857;SDS011;16852;51.446;6.528;2023-05-10T09:31:53;20.77;;;12.70;;
27857;SDS011;16852;51.446;6.528;2023-05-10T09:33:55;20.63;;;13.00;;
27857;SDS011;16852;51.446;6.528;2023-05-10T09:36:05;17.80;;;11.73;;
27857;SDS011;16852;51.446;6.528;2023-05-10T09:38:07;23.50;;;14.70;;
27857;SDS011;16852;51.446;6.528;2023-05-10T09:40:19;21.77;;;13.50;;
27857;SDS011;16852;51.446;6.528;2023-05-10T09:42:21;24.63;;;15.00;;
27857;SDS011;16852;51.446;6.528;2023-05-10T09:44:23;18.02;;;12.05;;
27857;SDS011;16852;51.446;6.528;2023-05-10T09:46:25;18.63;;;12.23;;
27857;SDS011;16852;51.446;6.528;2023-05-10T09:48:26;18.48;;;12.23;;
27857;SDS011;16852;51.446;6.528;2023-05-10T09:50:27;20.08;;;12.13;;
27857;SDS011;16852;51.446;6.528;2023-05-10T09:52:28;20.42;;;12.13;;
27857;SDS011;16852;51.446;6.528;2023-05-10T09:54:29;19.75;;;12.38;;
27857;SDS011;16852;51.446;6.528;2023-05-10T09:56:34;23.25;;;14.63;;
27857;SDS011;16852;51.446;6.528;2023-05-10T09:58:36;20.00;;;13.40;;
27857;SDS011;16852;51.446;6.528;2023-05-10T10:00:41;24.17;;;15.20;;
27857;SDS011;16852;51.446;6.528;2023-05-10T10:02:45;22.58;;;14.10;;
27857;SDS011;16852;51.446;6.528;2023-05-10T10:04:48;20.17;;;14.05;;
27857;SDS011;16852;51.446;6.528;2023-05-10T10:07:02;24.30;;;15.55;;
27857;SDS011;16852;51.446;6.528;2023-05-10T10:09:04;23.27;;;15.75;;
27857;SDS011;16852;51.446;6.528;2023-05-10T10:11:06;21.48;;;14.52;;
27857;SDS011;16852;51.446;6.528;2023-05-10T10:13:07;26.00;;;16.95;;
27857;SDS011;16852;51.446;6.528;2023-05-10T10:15:08;26.98;;;16.60;;
27857;SDS011;16852;51.446;6.528;2023-05-10T10:17:09;22.95;;;16.58;;
27857;SDS011;16852;51.446;6.528;2023-05-10T10:19:10;20.02;;;14.27;;
27857;SDS011;16852;51.446;6.528;2023-05-10T10:21:13;25.90;;;16.88;;
27857;SDS011;16852;51.446;6.528;2023-05-10T10:23:14;22.27;;;14.32;;
27857;SDS011;16852;51.446;6.528;2023-05-10T10:25:16;19.90;;;13.75;;
27857;SDS011;16852;51.446;6.528;2023-05-10T10:29:49;18.08;;;13.32;;
27857;SDS011;16852;51.446;6.528;2023-05-10T10:36:05;22.63;;;14.85;;
27857;SDS011;16852;51.446;6.528;2023-05-10T10:38:07;24.20;;;16.58;;
27857;SDS011;16852;51.446;6.528;2023-05-10T10:40:24;22.73;;;14.77;;
27857;SDS011;16852;51.446;6.528;2023-05-10T10:42:43;22.75;;;14.70;;
27857;SDS011;16852;51.446;6.528;2023-05-10T10:44:45;21.75;;;14.18;;
27857;SDS011;16852;51.446;6.528;2023-05-10T10:49:24;21.13;;;14.07;;
27857;SDS011;16852;51.446;6.528;2023-05-10T10:51:28;18.83;;;12.10;;
27857;SDS011;16852;51.446;6.528;2023-05-10T10:53:29;17.95;;;11.98;;
27857;SDS011;16852;51.446;6.528;2023-05-10T10:55:29;19.20;;;11.18;;
27857;SDS011;16852;51.446;6.528;2023-05-10T10:57:42;15.73;;;10.85;;
27857;SDS011;16852;51.446;6.528;2023-05-10T11:02:33;17.30;;;11.90;;
27857;SDS011;16852;51.446;6.528;2023-05-10T11:04:41;14.23;;;10.20;;
27857;SDS011;16852;51.446;6.528;2023-05-10T11:06:46;14.25;;;9.70;;
27857;SDS011;16852;51.446;6.528;2023-05-10T11:08:47;14.07;;;10.05;;
27857;SDS011;16852;51.446;6.528;2023-05-10T11:10:51;14.63;;;10.10;;
27857;SDS011;16852;51.446;6.528;2023-05-10T11:13:12;15.80;;;8.90;;
27857;SDS011;16852;51.446;6.528;2023-05-10T11:15:13;10.23;;;7.30;;
27857;SDS011;16852;51.446;6.528;2023-05-10T11:17:26;10.10;;;7.05;;
27857;SDS011;16852;51.446;6.528;2023-05-10T11:19:29;10.00;;;7.57;;
27857;SDS011;16852;51.446;6.528;2023-05-10T11:21:30;12.30;;;7.72;;
27857;SDS011;16852;51.446;6.528;2023-05-10T11:25:47;11.10;;;7.57;;
27857;SDS011;16852;51.446;6.528;2023-05-10T11:27:49;10.65;;;6.82;;
27857;SDS011;16852;51.446;6.528;2023-05-10T11:29:53;9.55;;;6.45;;
27857;SDS011;16852;51.446;6.528;2023-05-10T11:31:56;9.63;;;7.03;;
27857;SDS011;16852;51.446;6.528;2023-05-10T11:33:58;12.13;;;7.15;;
27857;SDS011;16852;51.446;6.528;2023-05-10T11:35:59;9.63;;;6.47;;
27857;SDS011;16852;51.446;6.528;2023-05-10T11:38:00;8.88;;;5.72;;
27857;SDS011;16852;51.446;6.528;2023-05-10T11:40:00;8.50;;;5.53;;
27857;SDS011;16852;51.446;6.528;2023-05-10T11:42:02;9.57;;;6.35;;
27857;SDS011;16852;51.446;6.528;2023-05-10T11:44:03;10.20;;;5.53;;
27857;SDS011;16852;51.446;6.528;2023-05-10T11:46:04;7.47;;;5.90;;
27857;SDS011;16852;51.446;6.528;2023-05-10T11:48:09;8.80;;;6.32;;
27857;SDS011;16852;51.446;6.528;2023-05-10T11:50:10;9.05;;;6.47;;
27857;SDS011;16852;51.446;6.528;2023-05-10T11:52:11;10.27;;;6.43;;
27857;SDS011;16852;51.446;6.528;2023-05-10T11:54:12;7.38;;;5.50;;
27857;SDS011;16852;51.446;6.528;2023-05-10T11:56:12;7.88;;;5.72;;
27857;SDS011;16852;51.446;6.528;2023-05-10T11:58:13;9.60;;;5.45;;
27857;SDS011;16852;51.446;6.528;2023-05-10T12:00:14;10.40;;;6.63;;
27857;SDS011;16852;51.446;6.528;2023-05-10T12:02:14;6.82;;;5.35;;
27857;SDS011;16852;51.446;6.528;2023-05-10T12:04:15;8.10;;;5.88;;
27857;SDS011;16852;51.446;6.528;2023-05-10T12:06:17;5.72;;;4.97;;
27857;SDS011;16852;51.446;6.528;2023-05-10T12:08:22;7.70;;;5.45;;
27857;SDS011;16852;51.446;6.528;2023-05-10T12:10:25;5.93;;;4.85;;
27857;SDS011;16852;51.446;6.528;2023-05-10T12:12:26;8.88;;;5.20;;
27857;SDS011;16852;51.446;6.528;2023-05-10T12:14:27;6.05;;;4.32;;
27857;SDS011;16852;51.446;6.528;2023-05-10T12:16:29;6.30;;;4.60;;
27857;SDS011;16852;51.446;6.528;2023-05-10T12:18:30;6.00;;;4.65;;
27857;SDS011;16852;51.446;6.528;2023-05-10T12:20:30;9.50;;;5.60;;
27857;SDS011;16852;51.446;6.528;2023-05-10T12:22:33;7.78;;;5.10;;
27857;SDS011;16852;51.446;6.528;2023-05-10T12:24:35;5.63;;;4.47;;
27857;SDS011;16852;51.446;6.528;2023-05-10T12:26:37;8.93;;;5.93;;
27857;SDS011;16852;51.446;6.528;2023-05-10T12:28:38;9.13;;;5.38;;
27857;SDS011;16852;51.446;6.528;2023-05-10T12:30:41;8.45;;;5.03;;
27857;SDS011;16852;51.446;6.528;2023-05-10T12:32:43;7.07;;;5.03;;
27857;SDS011;16852;51.446;6.528;2023-05-10T12:34:44;5.65;;;4.18;;
27857;SDS011;16852;51.446;6.528;2023-05-10T12:36:49;6.22;;;4.28;;